Time;durP1;ratioP1;P1;durP2;ratioP2;P2;SDS_P1;SDS_P2;PMS_P1;PMS_P2;Temp;Humidity;BMP_temperature;BMP_pressure;BME280_temperature;BME280_humidity;BME280_pressure;Samples;Min_cycle;Max_cycle;Signal;HPM_P1;HPM_P2
2021/08/15 16:41:13;;;;;;;;;;;23.80;99.90;;;;;;7053499;27;20008;-63
2021/08/15 16:44:34;;;;;;;;;;;24.00;99.90;;;;;;7025873;28;19916;-65
2021/08/15 16:47:55;;;;;;;;;;;24.20;99.90;;;;;;7027237;28;20336;-63
2021/08/15 16:51:15;;;;;;;;;;;24.40;99.90;;;;;;7004835;28;19915;-63
2021/08/15 16:54:36;;;;;;;;;;;24.60;99.90;;;;;;7003540;28;19916;-64
2021/08/15 16:57:57;;;;;;;;;;;24.60;99.90;;;;;;7014222;28;19919;-63
2021/08/15 17:01:18;;;;;;;;;;;24.70;99.90;;;;;;7001758;28;19924;-63
2021/08/15 17:04:38;;;;;;;;;;;24.70;99.90;;;;;;6980184;28;19959;-62
2021/08/15 17:07:59;;;;;;;;;;;24.80;99.90;;;;;;7022884;28;19915;-62
2021/08/15 17:11:20;;;;;;;;;;;24.80;99.90;;;;;;6990351;28;19957;-64
2021/08/15 17:14:41;;;;;;;;;;;24.70;99.90;;;;;;6998331;28;19918;-62
2021/08/15 17:18:01;;;;;;;;;;;24.70;99.90;;;;;;7027212;28;20279;-61
2021/08/15 17:21:22;;;;;;;;;;;24.60;99.90;;;;;;7009469;28;20295;-62
2021/08/15 17:24:43;;;;;;;;;;;24.50;99.90;;;;;;7009881;28;20410;-62
2021/08/15 17:28:04;;;;;;;;;;;24.40;99.90;;;;;;7007371;28;19912;-62
2021/08/15 17:31:24;;;;;;;;;;;24.30;99.90;;;;;;6996479;28;19912;-62
2021/08/15 17:34:45;;;;;;;;;;;24.20;99.90;;;;;;7012094;28;19945;-62
2021/08/15 17:38:06;;;;;;;;;;;24.00;99.90;;;;;;7005170;28;19916;-61
2021/08/15 17:41:28;;;;;;;;;;;23.80;99.90;;;;;;6993129;28;19999;-62
2021/08/15 17:44:49;;;;;;;;;;;23.70;99.90;;;;;;7003575;28;19923;-62
2021/08/15 17:48:10;;;;;;;;;;;23.40;99.90;;;;;;7010919;28;19912;-62
2021/08/15 17:51:31;;;;;;;;;;;23.30;99.90;;;;;;7001419;28;19911;-62
2021/08/15 17:54:52;;;;;;;;;;;23.10;99.90;;;;;;6989342;28;19921;-64
2021/08/15 17:58:12;;;;;;;;;;;22.80;99.90;;;;;;6973201;28;19916;-64
2021/08/15 18:01:33;;;;;;;;;;;22.40;99.90;;;;;;6991385;28;19912;-64
2021/08/15 18:04:55;;;;;;;;;;;22.40;99.90;;;;;;6995505;28;19943;-65
2021/08/15 18:08:16;;;;;;;;;;;22.20;99.90;;;;;;6973186;28;19916;-65
2021/08/15 18:11:37;;;;;;;;;;;22.10;99.90;;;;;;7005771;28;20418;-64
2021/08/15 18:14:58;;;;;;;;;;;22.00;99.90;;;;;;7006341;28;19922;-66
2021/08/15 18:18:19;;;;;;;;;;;21.80;99.90;;;;;;6970010;28;20006;-65
2021/08/15 18:21:40;;;;;;;;;;;21.70;99.90;;;;;;6996670;28;20364;-66
2021/08/15 18:25:01;;;;;;;;;;;21.60;99.90;;;;;;6992673;28;19970;-66
2021/08/15 18:28:22;;;;;;;;;;;21.50;99.90;;;;;;7002324;28;19916;-66
2021/08/15 18:31:43;;;;;;;;;;;21.40;99.90;;;;;;6984657;28;20015;-62
2021/08/15 18:35:04;;;;;;;;;;;21.40;99.90;;;;;;7007966;28;19915;-62
2021/08/15 18:38:27;;;;;;;;;;;21.40;99.90;;;;;;6990339;28;19974;-62
2021/08/15 18:41:47;;;;;;;;;;;21.40;99.90;;;;;;6985090;28;19988;-62
2021/08/15 18:45:09;;;;;;;;;;;21.30;99.90;;;;;;6978761;28;19965;-61
2021/08/15 18:48:30;;;;;;;;;;;21.10;99.90;;;;;;6998306;28;19912;-63
2021/08/15 18:51:50;;;;;;;;;;;21.00;99.90;;;;;;6972901;28;19966;-62
2021/08/15 18:55:11;;;;;;;;;;;20.80;99.90;;;;;;6990090;28;19998;-63
2021/08/15 18:58:33;;;;;;;;;;;20.70;99.90;;;;;;6994435;28;20047;-62
2021/08/15 19:01:54;;;;;;;;;;;20.50;99.90;;;;;;6986454;28;20281;-61
2021/08/15 19:05:15;;;;;;;;;;;20.30;99.90;;;;;;6994284;28;19937;-62
2021/08/15 19:08:35;;;;;;;;;;;20.10;99.90;;;;;;6985921;28;20318;-62
2021/08/15 19:11:56;;;;;;;;;;;20.00;99.90;;;;;;6990692;28;19994;-63
2021/08/15 19:15:18;;;;;;;;;;;19.90;99.90;;;;;;6974213;28;19912;-60
2021/08/15 19:18:39;;;;;;;;;;;19.80;99.90;;;;;;6986725;28;20000;-59
2021/08/15 19:21:59;;;;;;;;;;;19.70;99.90;;;;;;6968329;28;19912;-60
2021/08/15 19:25:20;;;;;;;;;;;19.60;99.90;;;;;;6970991;28;19913;-64
2021/08/15 19:28:41;;;;;;;;;;;19.50;99.90;;;;;;6972574;28;20278;-59
2021/08/15 19:32:03;;;;;;;;;;;19.50;99.90;;;;;;6996212;28;20250;-62
2021/08/15 19:35:24;;;;;;;;;;;19.50;99.90;;;;;;6986202;28;20350;-62
2021/08/15 19:38:44;;;;;;;;;;;19.50;99.90;;;;;;6986843;28;19916;-63
2021/08/15 19:42:05;;;;;;;;;;;19.70;99.90;;;;;;6984929;28;20328;-63
2021/08/15 19:45:26;;;;;;;;;;;20.00;99.90;;;;;;6988001;28;19912;-63
2021/08/15 19:48:47;;;;;;;;;;;20.30;99.90;;;;;;6976249;28;19918;-63
2021/08/15 19:52:08;;;;;;;;;;;20.30;99.90;;;;;;6967643;28;19916;-63
2021/08/15 19:55:29;;;;;;;;;;;20.50;99.90;;;;;;6939677;28;19916;-63
2021/08/15 19:58:50;;;;;;;;;;;20.60;99.90;;;;;;6972777;28;19922;-63
2021/08/15 20:02:11;;;;;;;;;;;20.60;99.90;;;;;;6997953;28;19912;-61
2021/08/15 20:05:32;;;;;;;;;;;20.60;99.90;;;;;;6989254;28;19912;-60
2021/08/15 20:08:53;;;;;;;;;;;20.60;99.90;;;;;;6991450;28;20291;-61
2021/08/15 20:12:14;;;;;;;;;;;20.60;99.90;;;;;;6982720;28;20387;-61
2021/08/15 20:15:35;;;;;;;;;;;20.60;99.90;;;;;;7002759;28;20300;-59
2021/08/15 20:18:56;;;;;;;;;;;20.60;99.90;;;;;;6990591;28;20380;-62
2021/08/15 20:22:17;;;;;;;;;;;20.60;99.90;;;;;;6988044;28;19912;-61
2021/08/15 20:25:38;;;;;;;;;;;20.60;99.90;;;;;;6981812;28;19926;-61
2021/08/15 20:28:58;;;;;;;;;;;20.50;99.90;;;;;;6984344;28;19912;-61
2021/08/15 20:32:19;;;;;;;;;;;20.50;99.90;;;;;;7001684;28;19913;-61
2021/08/15 20:35:40;;;;;;;;;;;20.50;99.90;;;;;;6987566;28;19919;-62
2021/08/15 20:39:02;;;;;;;;;;;20.40;99.90;;;;;;7001191;28;19963;-63
2021/08/15 20:42:23;;;;;;;;;;;20.40;99.90;;;;;;6984072;28;20364;-63
2021/08/15 20:45:44;;;;;;;;;;;20.40;99.90;;;;;;6981498;28;19966;-63
2021/08/15 20:49:05;;;;;;;;;;;20.30;99.90;;;;;;6981672;28;20014;-63
2021/08/15 20:52:26;;;;;;;;;;;20.30;99.90;;;;;;6973450;28;19923;-63
2021/08/15 20:55:47;;;;;;;;;;;20.30;99.90;;;;;;7004794;28;20384;-63
2021/08/15 20:59:07;;;;;;;;;;;20.20;99.90;;;;;;6989256;28;19912;-63
2021/08/15 21:02:28;;;;;;;;;;;20.10;99.90;;;;;;6985148;28;19919;-63
2021/08/15 21:05:50;;;;;;;;;;;20.10;99.90;;;;;;7012786;28;19916;-63
2021/08/15 21:09:11;;;;;;;;;;;20.00;99.90;;;;;;6984015;28;19908;-62
2021/08/15 21:12:31;;;;;;;;;;;19.90;99.90;;;;;;7000222;28;19912;-63
2021/08/15 21:15:53;;;;;;;;;;;19.70;99.90;;;;;;7006964;28;19919;-64
2021/08/15 21:19:14;;;;;;;;;;;19.50;99.90;;;;;;6999854;28;20337;-64
2021/08/15 21:22:35;;;;;;;;;;;19.30;99.90;;;;;;6987253;28;19912;-62
2021/08/15 21:25:56;;;;;;;;;;;19.10;99.90;;;;;;6987855;28;19913;-63
2021/08/15 21:29:17;;;;;;;;;;;18.90;99.90;;;;;;6991574;28;20311;-63
2021/08/15 21:32:39;;;;;;;;;;;18.80;99.90;;;;;;6987986;28;19969;-63
2021/08/15 21:35:59;;;;;;;;;;;18.70;99.90;;;;;;6990206;28;19916;-62
2021/08/15 21:39:20;;;;;;;;;;;18.60;99.90;;;;;;6992514;28;20003;-63
2021/08/15 21:42:42;;;;;;;;;;;18.60;99.90;;;;;;6989199;28;19918;-63
2021/08/15 21:46:03;;;;;;;;;;;18.50;99.90;;;;;;6994020;28;19994;-63
2021/08/15 21:49:25;;;;;;;;;;;18.50;99.90;;;;;;6991397;28;19923;-62
2021/08/15 21:52:45;;;;;;;;;;;18.50;99.90;;;;;;6990215;28;19912;-64
2021/08/15 21:56:07;;;;;;;;;;;18.40;99.90;;;;;;6993584;28;20349;-61
2021/08/15 21:59:27;;;;;;;;;;;18.30;99.90;;;;;;6992213;28;20428;-63
2021/08/15 22:02:48;;;;;;;;;;;18.30;99.90;;;;;;6987818;28;19912;-63
2021/08/15 22:06:12;;;;;;;;;;;18.20;99.90;;;;;;6994169;28;19911;-62
2021/08/15 22:09:32;;;;;;;;;;;18.10;99.90;;;;;;6992526;28;19913;-63
2021/08/15 22:12:53;;;;;;;;;;;18.10;99.90;;;;;;6991360;28;19912;-62
2021/08/15 22:16:14;;;;;;;;;;;18.00;99.90;;;;;;6993853;28;20010;-63
2021/08/15 22:19:35;;;;;;;;;;;18.00;99.90;;;;;;7003132;28;19916;-62
2021/08/15 22:22:55;;;;;;;;;;;18.00;99.90;;;;;;6994557;28;19956;-63
2021/08/15 22:26:17;;;;;;;;;;;18.10;99.90;;;;;;6990282;28;20276;-63
2021/08/15 22:29:38;;;;;;;;;;;18.20;99.90;;;;;;6979740;28;19912;-64
2021/08/15 22:32:59;;;;;;;;;;;18.10;99.90;;;;;;6987829;28;19918;-63
2021/08/15 22:36:20;;;;;;;;;;;18.20;99.90;;;;;;6979945;28;19912;-59
2021/08/15 22:39:42;;;;;;;;;;;18.30;99.90;;;;;;6986504;28;19920;-59
2021/08/15 22:43:03;;;;;;;;;;;18.40;99.90;;;;;;6987748;28;19919;-59
2021/08/15 22:46:25;;;;;;;;;;;18.50;99.90;;;;;;6984339;28;19912;-61
2021/08/15 22:49:46;;;;;;;;;;;18.50;99.90;;;;;;6989646;28;19912;-63
2021/08/15 22:53:07;;;;;;;;;;;18.50;99.90;;;;;;6989320;28;20016;-57
2021/08/15 22:56:27;;;;;;;;;;;18.50;99.90;;;;;;6980919;28;20006;-61
2021/08/15 22:59:48;;;;;;;;;;;18.40;99.90;;;;;;7006572;28;19916;-62
2021/08/15 23:03:09;;;;;;;;;;;18.20;99.90;;;;;;6985342;28;19912;-63
2021/08/15 23:06:31;;;;;;;;;;;18.20;99.90;;;;;;6991780;28;20294;-61
2021/08/15 23:09:51;;;;;;;;;;;18.00;99.90;;;;;;6980227;28;20272;-63
2021/08/15 23:13:12;;;;;;;;;;;18.00;99.90;;;;;;6983758;28;20425;-63
2021/08/15 23:16:33;;;;;;;;;;;17.90;99.90;;;;;;6990428;28;19918;-62
2021/08/15 23:19:53;;;;;;;;;;;17.90;99.90;;;;;;6987101;28;19919;-62
2021/08/15 23:23:14;;;;;;;;;;;18.00;99.90;;;;;;7006776;28;20245;-62
2021/08/15 23:26:36;;;;;;;;;;;18.00;99.90;;;;;;6992834;28;20273;-63
2021/08/15 23:29:56;;;;;;;;;;;17.90;99.90;;;;;;7006387;28;19916;-63
2021/08/15 23:33:17;;;;;;;;;;;17.90;99.90;;;;;;6984410;28;19916;-62
2021/08/15 23:36:38;;;;;;;;;;;17.80;99.90;;;;;;6988038;28;19916;-63
2021/08/15 23:39:58;;;;;;;;;;;17.80;99.90;;;;;;6983000;28;20022;-63
2021/08/15 23:43:19;;;;;;;;;;;17.70;99.90;;;;;;6985703;28;19966;-63
2021/08/15 23:46:40;;;;;;;;;;;17.70;99.90;;;;;;6992257;28;20010;-62
2021/08/15 23:50:01;;;;;;;;;;;17.60;99.90;;;;;;6985985;28;20364;-63
2021/08/15 23:53:22;;;;;;;;;;;17.50;99.90;;;;;;7004405;28;19916;-64
2021/08/15 23:56:43;;;;;;;;;;;17.60;99.90;;;;;;6989180;28;19963;-63
